createdAt,value
2023-02-05T00:01:07.919Z,6.43
2023-02-05T00:03:36.083Z,6.47
2023-02-05T00:06:02.601Z,6.53
2023-02-05T00:08:30.323Z,6.56
2023-02-05T00:10:57.186Z,6.57
2023-02-05T00:13:23.706Z,6.57
2023-02-05T00:15:50.151Z,6.56
2023-02-05T00:18:16.640Z,6.52
2023-02-05T00:20:43.168Z,6.55
2023-02-05T00:23:09.708Z,6.58
2023-02-05T00:25:36.195Z,6.60
2023-02-05T00:28:02.835Z,6.62
2023-02-05T00:30:29.788Z,6.64
2023-02-05T00:32:56.441Z,6.66
2023-02-05T00:35:22.904Z,6.68
2023-02-05T00:37:49.338Z,6.68
2023-02-05T00:40:15.854Z,6.70
2023-02-05T00:42:42.289Z,6.71
2023-02-05T00:45:09.372Z,6.60
2023-02-05T00:47:35.871Z,6.45
2023-02-05T00:50:02.383Z,6.51
2023-02-05T00:52:28.917Z,6.54
2023-02-05T00:54:55.426Z,6.55
2023-02-05T00:57:24.674Z,6.57
2023-02-05T00:59:52.438Z,6.57
2023-02-05T01:02:24.998Z,6.56
2023-02-05T01:04:52.138Z,6.53
2023-02-05T01:07:20.215Z,6.54
2023-02-05T01:09:47.046Z,6.52
2023-02-05T01:12:16.704Z,6.45
2023-02-05T01:14:43.279Z,6.45
2023-02-05T01:17:09.887Z,6.38
2023-02-05T01:19:37.308Z,6.37
2023-02-05T01:22:04.561Z,6.34
2023-02-05T01:24:31.361Z,6.29
2023-02-05T01:26:58.754Z,6.26
2023-02-05T01:29:28.421Z,6.23
2023-02-05T01:31:55.963Z,6.24
2023-02-05T01:34:22.746Z,6.25
2023-02-05T01:36:49.462Z,6.26
2023-02-05T01:39:15.936Z,6.30
2023-02-05T01:41:45.505Z,6.27
2023-02-05T01:44:14.924Z,6.28
2023-02-05T01:46:44.126Z,6.28
2023-02-05T01:49:26.524Z,6.27
2023-02-05T01:51:54.978Z,6.22
2023-02-05T01:54:24.503Z,6.21
2023-02-05T01:57:04.942Z,6.20
2023-02-05T01:59:36.264Z,6.13
2023-02-05T02:02:07.224Z,6.06
2023-02-05T02:04:45.837Z,6.03
2023-02-05T02:07:14.892Z,6.00
2023-02-05T02:09:42.961Z,5.98
2023-02-05T02:12:12.851Z,5.91
2023-02-05T02:14:42.529Z,5.91
2023-02-05T02:17:10.228Z,5.92
2023-02-05T02:20:12.181Z,5.91
2023-02-05T02:23:23.071Z,5.92
2023-02-05T02:26:07.589Z,5.91
2023-02-05T02:28:40.158Z,5.91
2023-02-05T02:31:17.364Z,5.87
2023-02-05T02:34:00.419Z,5.86
2023-02-05T02:36:52.217Z,5.88
2023-02-05T02:39:21.680Z,5.86
2023-02-05T02:42:06.393Z,5.89
2023-02-05T02:44:53.564Z,5.85
2023-02-05T02:47:22.479Z,5.86
2023-02-05T02:49:55.348Z,5.90
2023-02-05T02:52:25.163Z,5.91
2023-02-05T02:54:57.049Z,5.91
2023-02-05T02:57:27.545Z,5.90
2023-02-05T02:59:59.617Z,5.89
2023-02-05T03:02:31.182Z,5.93
2023-02-05T03:05:04.207Z,5.94
2023-02-05T03:07:42.607Z,5.91
2023-02-05T03:10:24.801Z,5.95
2023-02-05T03:12:51.649Z,5.95
2023-02-05T03:15:18.468Z,5.96
2023-02-05T03:17:45.143Z,5.95
2023-02-05T03:20:19.851Z,5.97
2023-02-05T03:22:46.449Z,5.98
2023-02-05T03:25:13.136Z,6.01
2023-02-05T03:27:39.613Z,6.03
2023-02-05T03:30:07.571Z,6.03
2023-02-05T03:32:36.855Z,6.05
2023-02-05T03:35:03.275Z,6.07
2023-02-05T03:38:11.437Z,6.06
2023-02-05T03:40:46.540Z,6.13
2023-02-05T03:43:12.944Z,6.12
2023-02-05T03:46:00.273Z,6.14
2023-02-05T03:48:35.652Z,6.16
2023-02-05T03:51:20.878Z,6.18
2023-02-05T03:54:07.826Z,6.23
2023-02-05T03:56:37.751Z,6.26
2023-02-05T03:59:05.381Z,6.29
2023-02-05T04:01:32.134Z,6.31
2023-02-05T04:03:58.613Z,6.31
2023-02-05T04:06:25.452Z,6.36
2023-02-05T04:08:51.924Z,6.39
2023-02-05T04:11:18.534Z,6.44
2023-02-05T04:13:44.989Z,6.46
2023-02-05T04:16:11.536Z,6.47
2023-02-05T04:18:38.014Z,6.53
2023-02-05T04:21:04.781Z,6.52
2023-02-05T04:23:31.773Z,6.54
2023-02-05T04:25:58.278Z,6.58
2023-02-05T04:28:24.709Z,6.59
2023-02-05T04:30:51.153Z,6.63
2023-02-05T04:33:17.704Z,6.66
2023-02-05T04:35:44.218Z,6.66
2023-02-05T04:38:10.686Z,6.69
2023-02-05T04:40:37.119Z,6.71
2023-02-05T04:43:03.571Z,6.73
2023-02-05T04:45:31.244Z,6.72
2023-02-05T04:47:59.459Z,6.73
2023-02-05T04:50:26.608Z,6.74
2023-02-05T04:52:53.046Z,6.74
2023-02-05T04:55:19.484Z,6.76
2023-02-05T04:57:45.912Z,6.76
2023-02-05T05:00:13.218Z,6.78
2023-02-05T05:02:39.694Z,6.80
2023-02-05T05:05:07.154Z,6.80
2023-02-05T05:07:33.650Z,6.81
2023-02-05T05:10:00.162Z,6.84
2023-02-05T05:12:26.606Z,6.81
2023-02-05T05:14:53.034Z,6.76
2023-02-05T05:17:19.480Z,6.81
2023-02-05T05:19:45.988Z,6.80
2023-02-05T05:22:12.476Z,6.83
2023-02-05T05:24:38.915Z,6.83
2023-02-05T05:27:05.578Z,6.82
2023-02-05T05:29:32.351Z,6.78
2023-02-05T05:31:58.958Z,6.78
2023-02-05T05:34:25.396Z,6.75
2023-02-05T05:36:53.434Z,6.75
2023-02-05T05:39:38.685Z,6.77
2023-02-05T05:42:24.219Z,6.75
2023-02-05T05:44:52.372Z,6.76
2023-02-05T05:47:19.600Z,6.76
2023-02-05T05:49:46.618Z,6.75
2023-02-05T05:52:13.145Z,6.74
2023-02-05T05:54:39.654Z,6.74
2023-02-05T05:57:07.656Z,6.73
2023-02-05T05:59:34.560Z,6.72
2023-02-05T06:02:02.248Z,6.71
2023-02-05T06:04:28.966Z,6.71
2023-02-05T06:06:55.460Z,6.67
2023-02-05T06:09:21.989Z,6.65
2023-02-05T06:11:48.856Z,6.65
2023-02-05T06:14:16.492Z,6.64
2023-02-05T06:16:43.018Z,6.62
2023-02-05T06:19:09.460Z,6.60
2023-02-05T06:21:35.908Z,6.60
2023-02-05T06:24:02.359Z,6.60
2023-02-05T06:26:28.883Z,6.58
2023-02-05T06:28:57.242Z,6.59
2023-02-05T06:31:24.278Z,6.58
2023-02-05T06:33:50.912Z,6.58
2023-02-05T06:36:17.356Z,6.54
2023-02-05T06:38:43.768Z,6.55
2023-02-05T06:41:10.219Z,6.54
2023-02-05T06:43:36.788Z,6.50
2023-02-05T06:46:03.314Z,6.50
2023-02-05T06:48:29.835Z,6.50
2023-02-05T06:50:56.318Z,6.48
2023-02-05T06:53:22.896Z,6.46
2023-02-05T06:55:49.342Z,6.47
2023-02-05T06:58:15.816Z,6.44
2023-02-05T07:00:43.040Z,6.45
2023-02-05T07:03:09.577Z,6.44
2023-02-05T07:05:36.324Z,6.44
2023-02-05T07:08:04.175Z,6.45
2023-02-05T07:10:30.866Z,6.41
2023-02-05T07:12:57.385Z,6.38
2023-02-05T07:15:23.836Z,6.37
2023-02-05T07:17:50.702Z,6.41
2023-02-05T07:20:18.754Z,6.40
2023-02-05T07:22:47.197Z,6.38
2023-02-05T07:25:13.731Z,6.40
2023-02-05T07:27:40.211Z,6.38
2023-02-05T07:30:07.332Z,6.38
2023-02-05T07:32:33.827Z,6.39
2023-02-05T07:35:00.325Z,6.39
2023-02-05T07:37:26.867Z,6.39
2023-02-05T07:39:53.333Z,6.38
2023-02-05T07:42:21.366Z,6.40
2023-02-05T07:44:47.874Z,6.40
2023-02-05T07:47:14.441Z,6.38
2023-02-05T07:49:41.014Z,6.36
2023-02-05T07:52:07.546Z,6.38
2023-02-05T07:54:34.053Z,6.36
2023-02-05T07:57:02.063Z,6.34
2023-02-05T07:59:28.728Z,6.35
2023-02-05T08:01:55.200Z,6.35
2023-02-05T08:04:21.694Z,6.34
2023-02-05T08:06:48.204Z,6.32
2023-02-05T08:09:14.697Z,6.33
2023-02-05T08:11:41.159Z,6.33
2023-02-05T08:14:07.699Z,6.32
2023-02-05T08:16:34.466Z,6.30
2023-02-05T08:19:00.972Z,6.32
2023-02-05T08:21:27.451Z,6.31
2023-02-05T08:23:53.926Z,6.29
2023-02-05T08:26:20.405Z,6.27
2023-02-05T08:28:46.880Z,6.26
2023-02-05T08:31:16.011Z,6.26
2023-02-05T08:33:43.136Z,6.24
2023-02-05T08:36:10.475Z,6.15
2023-02-05T08:38:37.309Z,5.99
2023-02-05T08:41:12.736Z,5.91
2023-02-05T08:43:47.572Z,5.90
2023-02-05T08:46:19.160Z,5.78
2023-02-05T08:48:46.887Z,5.71
2023-02-05T08:51:14.649Z,5.70
2023-02-05T08:53:41.621Z,5.70
2023-02-05T08:56:10.636Z,5.66
2023-02-05T08:58:38.765Z,5.61
2023-02-05T09:01:08.849Z,5.61
2023-02-05T09:03:35.809Z,5.64
2023-02-05T09:06:06.303Z,5.67
2023-02-05T09:08:33.176Z,5.61
2023-02-05T09:10:59.615Z,5.60
2023-02-05T09:13:26.171Z,5.58
2023-02-05T09:15:52.890Z,5.60
2023-02-05T09:18:19.400Z,5.59
2023-02-05T09:20:48.531Z,5.62
2023-02-05T09:23:17.017Z,5.66
2023-02-05T09:25:44.042Z,5.72
2023-02-05T09:28:13.115Z,5.75
2023-02-05T09:30:42.325Z,5.70
2023-02-05T09:33:09.585Z,5.69
2023-02-05T09:35:36.847Z,5.70
2023-02-05T09:38:03.682Z,5.71
2023-02-05T09:40:38.159Z,5.73
2023-02-05T09:43:23.705Z,5.73
2023-02-05T09:45:50.153Z,5.78
2023-02-05T09:48:34.192Z,5.74
2023-02-05T09:51:01.702Z,5.77
2023-02-05T09:53:35.456Z,5.78
2023-02-05T09:56:06.858Z,5.82
2023-02-05T09:58:37.893Z,5.86
2023-02-05T10:01:12.539Z,5.87
2023-02-05T10:03:49.576Z,5.85
2023-02-05T10:06:34.975Z,5.85
2023-02-05T10:09:24.647Z,5.85
2023-02-05T10:12:05.678Z,5.86
2023-02-05T10:15:04.091Z,5.85
2023-02-05T10:17:43.402Z,5.90
2023-02-05T10:20:35.820Z,5.91
2023-02-05T10:23:16.979Z,5.97
2023-02-05T10:26:04.325Z,5.95
2023-02-05T10:28:49.213Z,6.01
2023-02-05T10:31:27.959Z,5.99
2023-02-05T10:34:10.062Z,6.04
2023-02-05T10:36:36.647Z,6.02
2023-02-05T10:39:14.372Z,6.01
2023-02-05T10:42:06.645Z,6.00
2023-02-05T10:44:38.657Z,5.98
2023-02-05T10:47:17.058Z,5.95
2023-02-05T10:49:56.268Z,6.01
2023-02-05T10:52:23.178Z,6.01
2023-02-05T10:54:50.888Z,5.98
2023-02-05T10:57:19.367Z,6.01
2023-02-05T11:00:15.168Z,5.99
2023-02-05T11:02:46.189Z,5.98
2023-02-05T11:05:25.830Z,6.00
2023-02-05T11:07:54.076Z,5.94
2023-02-05T11:10:30.133Z,5.95
2023-02-05T11:13:14.607Z,5.98
2023-02-05T11:15:59.526Z,5.95
2023-02-05T11:18:45.987Z,5.98
2023-02-05T11:21:13.308Z,5.92
2023-02-05T11:23:43.033Z,5.97
2023-02-05T11:26:18.097Z,5.97
2023-02-05T11:28:45.121Z,5.99
2023-02-05T11:31:38.062Z,6.03
2023-02-05T11:34:07.315Z,6.08
2023-02-05T11:36:34.310Z,6.08
2023-02-05T11:39:01.387Z,6.12
2023-02-05T11:41:27.842Z,6.16
2023-02-05T11:43:55.993Z,6.18
2023-02-05T11:46:24.990Z,6.17
2023-02-05T11:49:03.367Z,6.18
2023-02-05T11:51:36.035Z,6.25
2023-02-05T11:54:14.426Z,6.23
2023-02-05T11:56:41.204Z,6.23
2023-02-05T11:59:21.901Z,6.21
2023-02-05T12:01:48.775Z,6.16
2023-02-05T12:04:19.302Z,6.18
2023-02-05T12:07:09.382Z,6.16
2023-02-05T12:09:36.434Z,6.08
2023-02-05T12:12:16.806Z,6.09
2023-02-05T12:14:45.495Z,6.08
2023-02-05T12:17:51.513Z,6.10
2023-02-05T12:20:37.785Z,6.11
2023-02-05T12:23:28.042Z,6.09
2023-02-05T12:26:35.036Z,5.99
2023-02-05T12:29:29.625Z,6.05
2023-02-05T12:31:59.126Z,6.05
2023-02-05T12:34:42.111Z,6.05
2023-02-05T12:37:08.539Z,6.02
2023-02-05T12:39:52.609Z,6.02
2023-02-05T12:42:34.219Z,6.02
2023-02-05T12:45:18.765Z,6.03
2023-02-05T12:47:57.319Z,6.04
2023-02-05T12:50:32.805Z,6.06
2023-02-05T12:53:38.918Z,6.11
2023-02-05T12:56:08.498Z,6.11
2023-02-05T12:58:43.595Z,6.16
2023-02-05T13:01:20.200Z,6.18
2023-02-05T13:04:07.051Z,6.20
2023-02-05T13:06:41.763Z,6.21
2023-02-05T13:09:08.217Z,6.21
2023-02-05T13:11:44.480Z,6.24
2023-02-05T13:14:20.054Z,6.26
2023-02-05T13:17:05.936Z,6.26
2023-02-05T13:19:34.061Z,6.26
2023-02-05T13:22:30.208Z,6.28
2023-02-05T13:25:30.090Z,6.28
2023-02-05T13:28:36.169Z,6.31
2023-02-05T13:31:05.168Z,6.29
2023-02-05T13:33:31.914Z,6.29
2023-02-05T13:36:16.484Z,6.30
2023-02-05T13:39:02.044Z,6.32
2023-02-05T13:41:43.491Z,6.37
2023-02-05T13:44:47.765Z,6.37
2023-02-05T13:47:34.294Z,6.37
2023-02-05T13:50:22.375Z,6.39
2023-02-05T13:52:48.869Z,6.41
2023-02-05T13:55:25.094Z,6.42
2023-02-05T13:57:57.507Z,6.44
2023-02-05T14:00:25.849Z,6.47
2023-02-05T14:02:56.497Z,6.49
2023-02-05T14:05:35.332Z,6.55
2023-02-05T14:08:03.343Z,6.59
2023-02-05T14:10:34.817Z,6.62
2023-02-05T14:13:19.202Z,6.66
2023-02-05T14:15:46.307Z,6.66
2023-02-05T14:18:40.727Z,6.69
2023-02-05T14:21:45.790Z,6.76
2023-02-05T14:24:50.535Z,6.81
2023-02-05T14:27:26.509Z,6.83
2023-02-05T14:29:53.567Z,6.87
2023-02-05T14:32:26.190Z,6.85
2023-02-05T14:34:59.873Z,6.83
2023-02-05T14:37:32.379Z,6.75
2023-02-05T14:39:59.724Z,6.68
2023-02-05T14:42:29.840Z,6.61
2023-02-05T14:44:57.890Z,6.57
2023-02-05T14:47:29.975Z,6.58
2023-02-05T14:50:24.343Z,6.48
2023-02-05T14:53:00.640Z,6.38
2023-02-05T14:55:32.612Z,6.34
2023-02-05T14:58:04.254Z,6.30
2023-02-05T15:00:32.344Z,6.27
2023-02-05T15:03:04.855Z,6.28
2023-02-05T15:05:34.551Z,6.22
2023-02-05T15:08:28.481Z,6.22
2023-02-05T15:11:05.212Z,6.25
2023-02-05T15:13:32.758Z,6.22
2023-02-05T15:16:21.090Z,6.20
2023-02-05T15:18:50.240Z,6.24
2023-02-05T15:21:23.270Z,6.22
2023-02-05T15:23:55.436Z,6.27
2023-02-05T15:26:27.856Z,6.27
2023-02-05T15:29:03.857Z,6.27
2023-02-05T15:31:36.234Z,6.26
2023-02-05T15:34:07.793Z,6.26
2023-02-05T15:36:41.676Z,6.25
2023-02-05T15:39:19.793Z,6.25
2023-02-05T15:41:47.830Z,6.28
2023-02-05T15:44:29.434Z,6.31
2023-02-05T15:46:58.665Z,6.33
2023-02-05T15:49:32.164Z,6.33
2023-02-05T15:52:00.624Z,6.37
2023-02-05T15:54:28.156Z,6.40
2023-02-05T15:56:55.186Z,6.42
2023-02-05T15:59:26.605Z,6.42
2023-02-05T16:02:04.233Z,6.43
2023-02-05T16:04:37.470Z,6.42
2023-02-05T16:07:18.643Z,6.42
2023-02-05T16:09:51.753Z,6.40
2023-02-05T16:12:19.657Z,6.38
2023-02-05T16:14:47.959Z,6.37
2023-02-05T16:17:21.477Z,6.39
2023-02-05T16:19:50.906Z,6.36
2023-02-05T16:22:32.671Z,6.38
2023-02-05T16:25:03.674Z,6.39
2023-02-05T16:27:44.180Z,6.39
2023-02-05T16:30:22.054Z,6.34
2023-02-05T16:32:48.860Z,6.34
2023-02-05T16:35:32.416Z,6.35
2023-02-05T16:38:00.834Z,6.35
2023-02-05T16:40:35.595Z,6.36
2023-02-05T16:43:27.352Z,6.39
2023-02-05T16:46:22.568Z,6.37
2023-02-05T16:49:00.464Z,6.37
2023-02-05T16:51:32.658Z,6.34
2023-02-05T16:54:11.420Z,6.31
2023-02-05T16:57:09.771Z,6.29
2023-02-05T16:59:59.657Z,6.26
2023-02-05T17:02:32.126Z,6.23
2023-02-05T17:05:01.376Z,6.18
2023-02-05T17:07:28.996Z,6.11
2023-02-05T17:10:13.411Z,6.08
2023-02-05T17:12:46.545Z,6.07
2023-02-05T17:15:12.966Z,6.05
2023-02-05T17:18:04.308Z,5.97
2023-02-05T17:20:33.256Z,5.88
2023-02-05T17:23:00.008Z,5.90
2023-02-05T17:25:28.574Z,5.82
2023-02-05T17:27:59.444Z,5.75
2023-02-05T17:30:26.006Z,5.74
2023-02-05T17:32:52.602Z,5.70
2023-02-05T17:35:22.522Z,5.70
2023-02-05T17:37:48.990Z,5.69
2023-02-05T17:40:15.854Z,5.70
2023-02-05T17:42:43.785Z,5.72
2023-02-05T17:45:26.607Z,5.73
2023-02-05T17:47:53.427Z,5.74
2023-02-05T17:50:20.622Z,5.77
2023-02-05T17:52:47.421Z,5.81
2023-02-05T17:55:17.224Z,5.80
2023-02-05T17:57:44.416Z,5.84
2023-02-05T18:00:17.911Z,5.85
2023-02-05T18:02:44.410Z,5.86
2023-02-05T18:05:13.788Z,5.83
2023-02-05T18:07:44.447Z,5.85
2023-02-05T18:10:23.547Z,5.84
2023-02-05T18:12:50.351Z,5.82
2023-02-05T18:15:16.979Z,5.77
2023-02-05T18:17:43.503Z,5.76
2023-02-05T18:20:10.973Z,5.75
2023-02-05T18:22:37.976Z,5.70
2023-02-05T18:25:06.215Z,5.67
2023-02-05T18:27:33.287Z,5.65
2023-02-05T18:29:59.786Z,5.60
2023-02-05T18:32:26.524Z,5.55
2023-02-05T18:34:53.138Z,5.55
2023-02-05T18:37:19.867Z,5.51
2023-02-05T18:39:47.623Z,5.47
2023-02-05T18:42:14.388Z,5.42
2023-02-05T18:44:40.932Z,5.42
2023-02-05T18:47:07.663Z,5.37
2023-02-05T18:49:35.148Z,5.38
2023-02-05T18:52:02.528Z,5.35
2023-02-05T18:54:29.118Z,5.36
2023-02-05T18:56:57.052Z,5.33
2023-02-05T18:59:25.646Z,5.33
2023-02-05T19:01:52.843Z,5.34
2023-02-05T19:04:20.711Z,5.35
2023-02-05T19:06:53.655Z,5.34
2023-02-05T19:09:21.826Z,5.38
2023-02-05T19:11:49.282Z,5.37
2023-02-05T19:14:18.252Z,5.38
2023-02-05T19:16:45.480Z,5.41
2023-02-05T19:19:14.261Z,5.43
2023-02-05T19:21:42.349Z,5.43
2023-02-05T19:24:09.925Z,5.43
2023-02-05T19:26:39.514Z,5.45
2023-02-05T19:29:09.186Z,5.44
2023-02-05T19:31:37.143Z,5.44
2023-02-05T19:34:04.191Z,5.47
2023-02-05T19:36:31.190Z,5.45
2023-02-05T19:39:00.961Z,5.49
2023-02-05T19:41:28.693Z,5.52
2023-02-05T19:43:58.159Z,5.50
2023-02-05T19:46:27.964Z,5.51
2023-02-05T19:48:56.247Z,5.54
2023-02-05T19:51:22.881Z,5.50
2023-02-05T19:53:49.483Z,5.53
2023-02-05T19:56:21.680Z,5.51
2023-02-05T19:58:51.013Z,5.49
2023-02-05T20:01:23.543Z,5.48
2023-02-05T20:03:51.919Z,5.46
2023-02-05T20:06:19.941Z,5.48
2023-02-05T20:08:47.396Z,5.49
2023-02-05T20:11:14.970Z,5.47
2023-02-05T20:13:42.338Z,5.43
2023-02-05T20:16:12.825Z,5.42
2023-02-05T20:18:40.798Z,5.35
2023-02-05T20:21:12.693Z,5.32
2023-02-05T20:23:39.241Z,5.33
2023-02-05T20:26:07.918Z,5.32
2023-02-05T20:29:00.610Z,5.33
2023-02-05T20:31:35.132Z,5.30
2023-02-05T20:34:04.094Z,5.28
2023-02-05T20:36:32.803Z,5.23
2023-02-05T20:39:01.462Z,5.21
2023-02-05T20:41:28.120Z,5.20
2023-02-05T20:43:56.307Z,5.14
2023-02-05T20:46:23.264Z,5.07
2023-02-05T20:48:50.204Z,5.06
2023-02-05T20:51:19.275Z,5.02
2023-02-05T20:53:46.817Z,5.02
2023-02-05T20:56:19.728Z,4.98
2023-02-05T20:58:47.230Z,4.97
2023-02-05T21:01:33.890Z,4.96
2023-02-05T21:04:02.800Z,4.95
2023-02-05T21:06:31.802Z,4.90
2023-02-05T21:08:58.786Z,4.90
2023-02-05T21:11:27.700Z,4.86
2023-02-05T21:13:54.448Z,4.79
2023-02-05T21:16:23.718Z,4.72
2023-02-05T21:18:51.999Z,4.72
2023-02-05T21:21:21.408Z,4.68
2023-02-05T21:23:48.339Z,4.62
2023-02-05T21:26:36.251Z,4.55
2023-02-05T21:29:06.393Z,4.50
2023-02-05T21:31:39.226Z,4.45
2023-02-05T21:34:08.449Z,4.37
2023-02-05T21:36:35.335Z,4.32
2023-02-05T21:39:01.996Z,4.25
2023-02-05T21:41:28.683Z,4.19
2023-02-05T21:43:57.567Z,4.12
2023-02-05T21:46:25.354Z,4.08
2023-02-05T21:48:57.690Z,4.04
2023-02-05T21:51:27.457Z,3.96
2023-02-05T21:53:57.220Z,3.95
2023-02-05T21:56:29.434Z,3.89
2023-02-05T21:58:56.489Z,3.85
2023-02-05T22:01:25.628Z,3.81
2023-02-05T22:04:04.199Z,3.76
2023-02-05T22:06:32.565Z,3.70
2023-02-05T22:09:00.401Z,3.66
2023-02-05T22:11:27.812Z,3.60
2023-02-05T22:13:55.508Z,3.57
2023-02-05T22:16:24.826Z,3.52
2023-02-05T22:18:52.830Z,3.48
2023-02-05T22:21:25.004Z,3.39
2023-02-05T22:23:53.777Z,3.31
2023-02-05T22:26:27.106Z,3.31
2023-02-05T22:28:55.314Z,3.27
2023-02-05T22:31:21.880Z,3.24
2023-02-05T22:33:49.910Z,3.21
2023-02-05T22:36:20.059Z,3.20
2023-02-05T22:38:47.872Z,3.12
2023-02-05T22:41:17.242Z,3.09
2023-02-05T22:43:43.760Z,3.03
2023-02-05T22:46:12.949Z,2.99
2023-02-05T22:48:41.582Z,2.96
2023-02-05T22:51:10.716Z,2.92
2023-02-05T22:53:37.674Z,2.88
2023-02-05T22:56:06.525Z,2.84
2023-02-05T22:58:33.946Z,2.80
2023-02-05T23:01:11.132Z,2.75
2023-02-05T23:03:38.203Z,2.73
2023-02-05T23:06:16.072Z,2.71
2023-02-05T23:08:43.078Z,2.69
2023-02-05T23:11:15.377Z,2.64
2023-02-05T23:13:42.099Z,2.61
2023-02-05T23:16:11.054Z,2.57
2023-02-05T23:18:38.200Z,2.56
2023-02-05T23:21:13.365Z,2.55
2023-02-05T23:23:40.774Z,2.54
2023-02-05T23:26:12.140Z,2.50
2023-02-05T23:28:39.226Z,2.50
2023-02-05T23:31:06.332Z,2.50
2023-02-05T23:33:33.950Z,2.46
2023-02-05T23:36:02.334Z,2.43
2023-02-05T23:38:28.958Z,2.41
2023-02-05T23:40:56.779Z,2.39
2023-02-05T23:43:23.874Z,2.38
2023-02-05T23:45:51.894Z,2.35
2023-02-05T23:48:18.627Z,2.37
2023-02-05T23:50:49.266Z,2.35
2023-02-05T23:53:15.727Z,2.32
2023-02-05T23:55:43.772Z,2.30
2023-02-05T23:58:11.190Z,2.28
